Time;durP1;ratioP1;P1;durP2;ratioP2;P2;SDS_P1;SDS_P2;PMS_P1;PMS_P2;Temp;Humidity;BMP_temperature;BMP_pressure;BME280_temperature;BME280_humidity;BME280_pressure;Samples;Min_cycle;Max_cycle;Signal;HPM_P1;HPM_P2
2021/06/29 00:02:23;;;;;;;17.73;10.93;;;;;;;17.99;85.08;100075.63;10389018;28;20211;-73
2021/06/29 00:07:27;;;;;;;20.33;11.23;;;;;;;17.97;85.41;100076.78;10388713;28;20814;-72
2021/06/29 00:12:30;;;;;;;19.67;11.32;;;;;;;17.97;84.93;100072.22;10388299;28;20222;-72
2021/06/29 00:17:33;;;;;;;15.90;11.00;;;;;;;17.98;85.09;100073.06;10388081;28;20276;-73
2021/06/29 00:22:37;;;;;;;13.38;10.20;;;;;;;17.88;85.10;100087.72;10388224;28;20289;-73
2021/06/29 00:27:42;;;;;;;16.63;11.35;;;;;;;17.83;84.82;100081.13;10387714;28;20187;-73
2021/06/29 00:32:45;;;;;;;20.40;11.88;;;;;;;17.75;84.34;100082.00;10387196;28;20520;-73
2021/06/29 00:37:49;;;;;;;20.15;13.05;;;;;;;17.72;84.38;100076.94;10386533;28;20222;-73
2021/06/29 00:42:52;;;;;;;19.33;12.77;;;;;;;17.65;84.19;100082.22;10387358;28;20215;-73
2021/06/29 00:47:55;;;;;;;18.45;12.10;;;;;;;17.70;84.38;100079.81;10387223;28;20187;-73
2021/06/29 00:53:19;;;;;;;22.58;12.95;;;;;;;17.79;84.10;100086.03;10391433;28;20285;-73
2021/06/29 00:58:22;;;;;;;17.25;12.40;;;;;;;17.84;84.43;100085.50;10386646;28;20214;-73
2021/06/29 01:03:25;;;;;;;23.42;12.30;;;;;;;17.87;84.67;100093.31;10387243;28;20201;-73
2021/06/29 01:08:29;;;;;;;16.95;12.85;;;;;;;17.84;84.25;100099.09;10386495;28;20193;-73
2021/06/29 01:13:33;;;;;;;23.48;13.80;;;;;;;17.77;84.33;100104.41;10387247;28;20577;-73
2021/06/29 01:18:38;;;;;;;24.52;13.50;;;;;;;17.66;84.00;100110.22;10386518;28;20602;-73
2021/06/29 01:23:48;;;;;;;20.38;13.32;;;;;;;17.56;83.61;100113.16;10386791;28;20191;-73
2021/06/29 01:29:00;;;;;;;30.70;14.43;;;;;;;17.53;83.59;100126.25;10386377;28;20217;-73
2021/06/29 01:34:04;;;;;;;17.75;12.82;;;;;;;17.47;83.65;100125.09;10368320;28;20211;-72
2021/06/29 01:39:12;;;;;;;22.05;13.98;;;;;;;17.52;83.84;100117.25;10385914;28;20227;-73
2021/06/29 01:44:21;;;;;;;18.35;12.18;;;;;;;17.52;83.84;100111.81;10385548;28;20210;-73
2021/06/29 01:49:26;;;;;;;19.02;12.73;;;;;;;17.50;83.54;100104.84;10385682;28;20293;-73
2021/06/29 01:54:30;;;;;;;25.23;13.27;;;;;;;17.59;83.64;100095.66;10389856;28;20198;-73
2021/06/29 02:00:27;;;;;;;19.38;12.82;;;;;;;17.64;83.38;100109.56;10392810;28;20249;-73
2021/06/29 02:05:29;;;;;;;26.77;13.32;;;;;;;17.70;83.65;100106.13;10392346;28;20195;-75
2021/06/29 02:10:34;;;;;;;28.92;11.98;;;;;;;17.66;83.40;100110.22;10392204;28;20266;-75
2021/06/29 02:15:37;;;;;;;18.27;11.93;;;;;;;17.64;83.38;100113.13;10392030;28;20221;-74
2021/06/29 02:20:40;;;;;;;18.48;12.85;;;;;;;17.57;83.00;100114.84;10391916;28;20218;-73
2021/06/29 02:25:44;;;;;;;15.95;11.35;;;;;;;17.47;82.33;100108.81;10391987;28;20241;-75
2021/06/29 02:30:47;;;;;;;19.90;11.57;;;;;;;17.43;82.32;100113.72;10391665;28;20698;-74
2021/06/29 02:35:50;;;;;;;19.67;11.77;;;;;;;17.48;81.91;100107.78;10391250;28;20206;-75
2021/06/29 02:40:55;;;;;;;22.13;11.57;;;;;;;17.48;81.88;100114.03;10391587;28;20237;-74
2021/06/29 02:45:58;;;;;;;19.08;11.80;;;;;;;17.53;81.89;100101.81;10391666;28;20187;-75
2021/06/29 02:51:01;;;;;;;22.90;12.23;;;;;;;17.55;82.03;100097.91;10391370;28;20234;-74
2021/06/29 02:56:05;;;;;;;21.63;10.85;;;;;;;17.52;81.81;100110.97;10390836;28;20210;-74
2021/06/29 03:01:08;;;;;;;19.73;10.90;;;;;;;17.44;82.02;100107.28;10390925;28;20214;-73
2021/06/29 03:06:11;;;;;;;19.08;10.93;;;;;;;17.38;82.06;100104.41;10390015;28;20191;-73
2021/06/29 03:11:15;;;;;;;17.25;11.90;;;;;;;17.38;82.31;100107.13;10390637;28;20214;-74
2021/06/29 03:16:18;;;;;;;22.20;12.27;;;;;;;17.36;82.11;100101.00;10390018;28;20226;-74
2021/06/29 03:21:22;;;;;;;16.70;12.00;;;;;;;17.36;82.10;100101.00;10392309;28;20268;-73
2021/06/29 03:26:27;;;;;;;19.48;11.65;;;;;;;17.44;81.66;100104.56;10391830;28;20270;-75
2021/06/29 03:31:30;;;;;;;21.67;11.65;;;;;;;17.51;81.91;100112.00;10390203;28;20323;-74
2021/06/29 03:36:33;;;;;;;18.27;11.70;;;;;;;17.51;81.79;100107.41;10389673;28;20260;-73
2021/06/29 03:41:37;;;;;;;19.63;10.25;;;;;;;17.54;81.59;100096.19;10389897;28;20225;-76
2021/06/29 03:46:40;;;;;;;20.67;11.45;;;;;;;17.63;81.53;100095.13;10389268;28;20187;-74
2021/06/29 03:51:43;;;;;;;17.00;11.32;;;;;;;17.75;81.61;100084.72;10389259;28;20219;-74
2021/06/29 03:56:48;;;;;;;16.10;11.55;;;;;;;17.77;81.41;100085.41;10388713;28;20289;-74
2021/06/29 04:01:51;;;;;;;20.10;11.18;;;;;;;17.69;81.30;100083.56;10388691;28;20210;-74
2021/06/29 04:06:53;;;;;;;15.77;11.32;;;;;;;17.75;81.29;100081.16;10388271;28;20194;-74
2021/06/29 04:11:58;;;;;;;16.98;11.80;;;;;;;17.76;81.31;100080.13;10388338;28;20217;-74
2021/06/29 04:17:01;;;;;;;20.08;12.00;;;;;;;17.76;81.49;100069.25;10387079;28;20213;-74
2021/06/29 04:22:04;;;;;;;19.05;11.65;;;;;;;17.74;81.41;100063.16;10388291;28;20218;-74
2021/06/29 04:27:09;;;;;;;17.65;12.65;;;;;;;17.79;81.56;100061.59;10387693;28;20189;-74
2021/06/29 04:32:12;;;;;;;23.50;11.88;;;;;;;17.82;81.54;100058.50;10388157;28;20223;-74
2021/06/29 04:37:15;;;;;;;21.25;12.07;;;;;;;17.83;81.27;100065.66;10388388;28;20225;-74
2021/06/29 04:42:19;;;;;;;16.00;11.60;;;;;;;17.92;81.28;100053.69;10388688;28;20202;-74
2021/06/29 04:47:22;;;;;;;18.50;12.32;;;;;;;17.99;80.87;100042.13;10388032;28;20186;-74
2021/06/29 04:52:25;;;;;;;16.58;11.88;;;;;;;18.14;80.64;100051.22;10388421;28;20601;-74
2021/06/29 04:57:29;;;;;;;19.15;11.77;;;;;;;18.20;80.60;100038.75;10388216;28;20211;-73
2021/06/29 05:02:32;;;;;;;16.42;11.80;;;;;;;18.27;79.78;100029.69;10387948;28;20679;-72
2021/06/29 05:07:37;;;;;;;17.08;11.13;;;;;;;18.38;79.39;100011.25;10387218;28;20285;-72
2021/06/29 05:12:41;;;;;;;13.38;10.20;;;;;;;18.54;79.26;100002.91;10387575;28;20305;-72
2021/06/29 05:17:44;;;;;;;14.57;9.77;;;;;;;18.71;79.04;99990.84;10387202;28;20207;-72
2021/06/29 05:22:47;;;;;;;11.07;9.77;;;;;;;18.93;78.82;99982.81;10387542;28;20860;-72
2021/06/29 05:27:52;;;;;;;13.07;10.77;;;;;;;19.00;78.30;99991.88;10390833;28;20539;-72
2021/06/29 05:32:55;;;;;;;16.75;10.38;;;;;;;18.91;78.58;99993.88;10394674;28;20210;-72
2021/06/29 05:37:58;;;;;;;16.70;10.43;;;;;;;18.80;78.78;99992.47;10395723;28;20262;-73
2021/06/29 05:43:02;;;;;;;14.50;10.68;;;;;;;18.74;78.58;99995.06;10413174;28;20213;-71
2021/06/29 05:48:06;;;;;;;14.20;10.63;;;;;;;18.67;78.60;100000.41;10434588;28;20186;-71
2021/06/29 05:53:09;;;;;;;12.73;10.40;;;;;;;18.67;78.89;99981.34;10434512;28;20573;-71
2021/06/29 05:58:14;;;;;;;12.75;10.00;;;;;;;18.74;78.94;99981.47;10417354;28;20567;-72
2021/06/29 06:03:17;;;;;;;11.52;10.32;;;;;;;18.74;78.96;99992.34;10434679;28;20194;-72
2021/06/29 06:08:19;;;;;;;11.27;9.65;;;;;;;18.79;78.33;99998.94;10427818;28;20186;-72
2021/06/29 06:13:24;;;;;;;13.65;10.10;;;;;;;18.87;78.55;100008.03;10393199;28;20199;-71
2021/06/29 06:18:27;;;;;;;11.15;9.00;;;;;;;18.99;79.64;100015.53;10392578;28;20218;-73
2021/06/29 06:23:30;;;;;;;16.50;9.90;;;;;;;18.94;79.86;100030.75;10390383;28;20192;-73
2021/06/29 06:28:34;;;;;;;12.77;9.32;;;;;;;18.87;79.32;100035.25;10350808;28;20199;-73
2021/06/29 06:33:38;;;;;;;16.30;9.15;;;;;;;18.86;80.19;100034.41;10351960;28;20186;-73
2021/06/29 06:38:44;;;;;;;13.50;9.40;;;;;;;19.09;79.62;100034.31;10350850;28;20225;-73
2021/06/29 06:43:49;;;;;;;12.30;8.50;;;;;;;19.24;78.75;100031.56;10351512;28;20576;-74
2021/06/29 06:48:52;;;;;;;10.73;8.38;;;;;;;19.26;78.95;100034.97;10351009;28;20223;-74
2021/06/29 06:53:55;;;;;;;12.77;8.48;;;;;;;19.27;78.94;100033.06;10351334;28;20187;-74
2021/06/29 06:58:59;;;;;;;11.65;8.02;;;;;;;19.23;78.53;100035.34;10350629;28;20263;-74
2021/06/29 07:04:02;;;;;;;9.65;8.23;;;;;;;19.23;79.01;100028.00;10350792;28;20680;-74
2021/06/29 07:09:06;;;;;;;10.43;8.50;;;;;;;19.55;78.51;100025.88;10350590;28;20203;-74
2021/06/29 07:14:24;;;;;;;9.43;7.88;;;;;;;19.96;76.33;100025.31;10332632;28;20660;-74
2021/06/29 07:19:26;;;;;;;11.52;7.68;;;;;;;20.16;75.68;100022.78;10350215;28;20220;-74
2021/06/29 07:24:29;;;;;;;8.65;6.97;;;;;;;20.25;75.20;100024.31;10350114;28;20661;-74
2021/06/29 07:29:34;;;;;;;8.57;7.57;;;;;;;20.15;74.48;100028.41;10349895;28;20295;-74
2021/06/29 07:34:37;;;;;;;10.30;8.68;;;;;;;20.08;73.78;100022.91;10379201;28;20281;-74
2021/06/29 07:39:40;;;;;;;11.43;8.10;;;;;;;20.26;74.27;100025.16;10403079;28;20214;-75
2021/06/29 07:44:44;;;;;;;8.23;7.43;;;;;;;20.50;72.69;100018.47;10430987;28;20190;-74
2021/06/29 07:49:47;;;;;;;10.30;7.90;;;;;;;20.79;73.12;100028.34;10418204;28;20275;-75
2021/06/29 07:54:50;;;;;;;8.93;7.28;;;;;;;21.23;71.64;100016.22;10404703;28;20744;-75
2021/06/29 07:59:55;;;;;;;7.25;6.55;;;;;;;21.57;70.33;100023.47;10389744;28;20225;-75
2021/06/29 08:04:57;;;;;;;7.53;6.70;;;;;;;21.96;69.17;100024.66;10389031;28;20575;-75
2021/06/29 08:10:00;;;;;;;8.95;6.97;;;;;;;21.98;66.94;100011.63;10389639;28;20203;-75
2021/06/29 08:15:06;;;;;;;7.88;6.82;;;;;;;21.98;67.33;100014.38;10389300;28;20249;-75
2021/06/29 08:20:15;;;;;;;8.32;6.90;;;;;;;22.20;66.76;100017.75;10396939;28;20672;-75
2021/06/29 08:25:24;;;;;;;8.50;7.60;;;;;;;22.25;67.27;100014.41;10388710;28;20183;-75
2021/06/29 08:30:28;;;;;;;10.88;7.18;;;;;;;22.65;65.39;100014.38;10388792;28;20207;-75
2021/06/29 08:35:31;;;;;;;8.13;7.20;;;;;;;22.55;64.33;100018.41;10401756;28;20194;-75
2021/06/29 08:40:37;;;;;;;9.95;8.07;;;;;;;22.32;62.17;100015.22;10390944;28;20231;-75
2021/06/29 08:45:41;;;;;;;7.85;7.07;;;;;;;22.39;62.42;100015.22;10388111;28;20257;-75
2021/06/29 08:50:45;;;;;;;8.73;7.30;;;;;;;21.95;64.56;100014.78;10413152;23;20235;-77
2021/06/29 08:55:50;;;;;;;11.82;9.13;;;;;;;21.67;63.79;100012.19;10372734;28;20803;-78
2021/06/29 09:00:56;;;;;;;9.93;8.52;;;;;;;21.58;66.16;100016.97;10386757;28;20218;-76
2021/06/29 09:05:59;;;;;;;11.07;9.13;;;;;;;21.87;64.43;100013.06;10373782;28;20214;-77
2021/06/29 09:11:09;;;;;;;12.20;9.38;;;;;;;21.77;64.90;100009.91;10345930;28;20211;-77
2021/06/29 09:16:24;;;;;;;13.07;10.82;;;;;;;22.13;63.12;100010.59;10345706;28;20305;-76
2021/06/29 09:21:35;;;;;;;10.80;9.02;;;;;;;22.39;63.74;100007.84;10327057;28;20421;-78
2021/06/29 09:26:39;;;;;;;11.63;10.45;;;;;;;22.33;62.84;100004.06;10344603;28;20187;-77
2021/06/29 09:31:45;;;;;;;11.88;10.68;;;;;;;22.95;61.93;99990.09;10346589;28;20294;-77
2021/06/29 09:36:48;;;;;;;12.70;11.00;;;;;;;24.73;56.39;99987.28;10346206;28;20274;-76
2021/06/29 09:42:02;;;;;;;12.60;10.88;;;;;;;24.64;55.87;99980.44;10346336;28;20226;-77
2021/06/29 09:47:29;;;;;;;14.00;10.13;;;;;;;23.96;57.31;99972.16;10347815;28;20168;-79
2021/06/29 09:52:33;;;;;;;10.90;9.77;;;;;;;24.34;55.48;99977.53;10347848;28;20222;-78
2021/06/29 09:57:36;;;;;;;10.30;9.30;;;;;;;26.32;53.70;99964.25;10346986;28;20294;-77
2021/06/29 10:02:42;;;;;;;9.73;8.80;;;;;;;25.39;53.94;99971.13;10346266;28;20231;-78
2021/06/29 10:07:45;;;;;;;10.45;8.98;;;;;;;24.19;56.90;99977.88;10345297;28;20258;-77
2021/06/29 10:12:50;;;;;;;7.78;7.13;;;;;;;23.98;56.27;99975.50;10345833;28;20222;-78
2021/06/29 10:17:54;;;;;;;8.82;7.80;;;;;;;23.86;55.86;99969.88;10351740;28;20234;-77
2021/06/29 10:22:58;;;;;;;9.52;7.93;;;;;;;23.98;56.13;99981.00;10352153;28;20230;-77
2021/06/29 10:28:01;;;;;;;9.40;7.50;;;;;;;24.32;54.43;99974.16;10334121;28;20199;-77
2021/06/29 10:33:07;;;;;;;8.43;7.63;;;;;;;24.54;53.31;99975.44;10335018;28;20696;-77
2021/06/29 10:38:10;;;;;;;9.35;8.48;;;;;;;23.94;56.71;99968.78;10348204;28;20227;-77
2021/06/29 10:43:13;;;;;;;9.82;8.93;;;;;;;23.78;56.97;99965.53;10348540;28;20212;-77
2021/06/29 10:48:21;;;;;;;8.52;7.60;;;;;;;23.51;55.65;99966.72;10347724;28;20197;-77
2021/06/29 10:53:45;;;;;;;7.80;6.97;;;;;;;23.30;56.47;99957.75;10349315;28;20651;-77
2021/06/29 10:58:50;;;;;;;8.35;7.55;;;;;;;23.83;55.90;99954.75;10334033;28;20225;-79
2021/06/29 11:03:56;;;;;;;8.88;7.78;;;;;;;24.22;55.25;99960.97;10334777;28;20215;-77
2021/06/29 11:09:00;;;;;;;8.40;7.60;;;;;;;24.46;54.70;99945.53;10350424;28;20289;-77
2021/06/29 11:14:03;;;;;;;7.60;6.90;;;;;;;25.12;52.65;99943.16;10349841;28;20261;-78
2021/06/29 11:19:08;;;;;;;7.88;6.80;;;;;;;25.83;50.48;99939.59;10350285;28;20743;-78
2021/06/29 11:24:36;;;;;;;5.95;5.30;;;;;;;25.43;46.39;99936.59;10349468;28;20656;-78
2021/06/29 11:29:44;;;;;;;7.07;6.30;;;;;;;25.95;48.29;99930.56;10332091;28;20652;-77
2021/06/29 11:34:48;;;;;;;6.97;6.38;;;;;;;25.59;48.30;99937.88;10352688;28;20190;-77
2021/06/29 11:39:58;;;;;;;7.25;6.55;;;;;;;25.63;48.57;99930.81;10337451;28;20234;-77
2021/06/29 11:45:06;;;;;;;5.97;4.72;;;;;;;26.26;45.60;99921.16;10355526;28;20191;-77
2021/06/29 11:50:19;;;;;;;5.70;5.07;;;;;;;27.31;43.87;99911.00;10354681;28;20245;-77
2021/06/29 11:55:22;;;;;;;5.70;5.20;;;;;;;26.86;43.94;99904.34;10354761;28;20191;-78
2021/06/29 12:00:30;;;;;;;6.18;5.63;;;;;;;27.30;43.68;99903.84;10357386;28;20668;-76
2021/06/29 12:05:36;;;;;;;5.65;5.15;;;;;;;26.93;45.21;99896.78;10348612;28;20224;-76
2021/06/29 12:10:41;;;;;;;6.20;5.25;;;;;;;26.25;46.36;99895.56;10350622;28;20212;-77
2021/06/29 12:15:45;;;;;;;6.93;6.22;;;;;;;25.47;48.33;99899.31;10334467;28;20203;-77
2021/06/29 12:20:52;;;;;;;6.45;5.85;;;;;;;26.06;47.71;99882.97;10350831;28;20298;-77
2021/06/29 12:25:57;;;;;;;7.15;6.50;;;;;;;27.37;44.14;99879.69;10355149;28;20251;-77
2021/06/29 12:31:01;;;;;;;7.13;6.43;;;;;;;27.31;44.62;99881.53;10353293;28;20222;-77
2021/06/29 12:36:08;;;;;;;7.40;6.70;;;;;;;26.48;47.23;99869.06;10350836;28;20218;-77
2021/06/29 12:41:19;;;;;;;8.07;7.28;;;;;;;25.28;50.44;99873.78;10348277;28;20223;-76
2021/06/29 12:46:23;;;;;;;8.27;7.45;;;;;;;25.02;49.45;99863.16;10333352;28;20203;-76
2021/06/29 12:51:28;;;;;;;7.75;7.13;;;;;;;25.51;48.59;99859.31;10346888;28;20560;-76
2021/06/29 12:56:34;;;;;;;7.82;7.22;;;;;;;27.18;46.35;99846.00;10347061;28;20633;-78
2021/06/29 13:01:41;;;;;;;9.25;8.35;;;;;;;28.63;42.11;99843.38;10352972;28;20219;-77
2021/06/29 13:06:46;;;;;;;9.57;8.68;;;;;;;26.70;44.62;99844.47;10346186;28;20298;-76
2021/06/29 13:11:55;;;;;;;9.10;8.15;;;;;;;28.21;42.37;99841.13;10347666;28;20207;-78
2021/06/29 13:17:04;;;;;;;9.65;8.75;;;;;;;27.16;42.92;99846.25;10347661;28;20274;-77
2021/06/29 13:22:11;;;;;;;9.40;8.60;;;;;;;25.74;47.34;99850.28;10346082;28;20219;-77
2021/06/29 13:27:24;;;;;;;9.43;8.63;;;;;;;24.66;49.77;99845.69;10349103;28;20683;-78
2021/06/29 13:32:28;;;;;;;12.95;9.07;;;;;;;24.51;49.53;99829.56;10350535;28;20211;-77
2021/06/29 13:37:38;;;;;;;9.80;8.90;;;;;;;24.85;49.57;99824.50;10349383;28;20199;-77
2021/06/29 13:42:41;;;;;;;10.95;9.23;;;;;;;25.08;49.74;99821.06;10350266;28;20704;-77
2021/06/29 13:47:50;;;;;;;12.30;11.15;;;;;;;24.71;49.80;99821.94;10351050;28;20195;-76
2021/06/29 13:52:57;;;;;;;11.60;10.40;;;;;;;24.93;50.63;99825.03;10357787;28;20211;-77
2021/06/29 13:58:21;;;;;;;14.50;11.95;;;;;;;25.58;48.34;99820.69;10383973;28;20368;-78
2021/06/29 14:03:28;;;;;;;17.20;12.73;;;;;;;25.79;48.07;99811.06;10352199;28;20223;-78
2021/06/29 14:08:36;;;;;;;16.17;14.48;;;;;;;26.61;47.20;99807.41;10352485;28;20641;-77
2021/06/29 14:13:40;;;;;;;15.45;13.80;;;;;;;27.68;44.59;99806.63;10352249;28;20216;-77
2021/06/29 14:18:44;;;;;;;14.45;12.93;;;;;;;28.50;43.87;99800.38;10351191;28;20198;-76
2021/06/29 14:23:51;;;;;;;14.15;12.75;;;;;;;29.03;42.84;99803.47;10359071;28;20694;-76
2021/06/29 14:28:54;;;;;;;15.93;12.35;;;;;;;28.12;42.85;99797.66;10350972;28;20678;-76
2021/06/29 14:33:57;;;;;;;13.93;12.40;;;;;;;28.73;43.44;99789.34;10356477;28;20212;-75
2021/06/29 14:39:03;;;;;;;14.85;13.38;;;;;;;27.87;43.93;99770.50;10350549;28;20188;-76
2021/06/29 14:44:06;;;;;;;14.75;13.25;;;;;;;28.34;43.30;99759.00;10352427;28;20291;-77
2021/06/29 14:49:09;;;;;;;14.95;13.35;;;;;;;28.79;43.74;99771.72;10353784;28;20188;-77
2021/06/29 14:54:19;;;;;;;15.50;12.90;;;;;;;28.41;43.18;99774.28;10351185;28;20187;-77
2021/06/29 14:59:22;;;;;;;14.65;13.15;;;;;;;28.19;43.33;99774.28;10349858;28;20214;-76
2021/06/29 15:04:25;;;;;;;14.93;13.43;;;;;;;27.93;43.25;99770.31;10346300;28;20196;-77
2021/06/29 15:09:29;;;;;;;13.73;12.13;;;;;;;28.10;43.06;99769.47;10292114;28;20219;-75
2021/06/29 15:14:33;;;;;;;13.07;11.68;;;;;;;27.92;42.75;99773.31;10309630;28;20577;-77
2021/06/29 15:19:36;;;;;;;10.90;9.68;;;;;;;28.35;41.04;99747.69;10309270;28;20270;-76
2021/06/29 15:24:41;;;;;;;9.68;8.75;;;;;;;29.49;41.42;99747.78;10309407;28;20280;-76
2021/06/29 15:29:44;;;;;;;8.57;7.68;;;;;;;31.02;37.47;99739.34;10309531;28;20216;-76
2021/06/29 15:34:47;;;;;;;7.63;6.82;;;;;;;32.03;36.41;99729.28;10309508;28;20600;-76
2021/06/29 15:39:51;;;;;;;7.88;6.65;;;;;;;32.29;35.12;99721.72;10308983;28;20219;-76
2021/06/29 15:44:54;;;;;;;8.32;7.45;;;;;;;29.37;39.79;99723.06;10308872;28;20200;-78
2021/06/29 15:49:57;;;;;;;8.57;7.75;;;;;;;28.46;41.52;99719.09;10342089;28;20231;-78
2021/06/29 15:55:01;;;;;;;9.15;7.72;;;;;;;30.75;37.51;99718.28;10372841;28;20191;-78
2021/06/29 16:00:05;;;;;;;8.25;7.45;;;;;;;29.61;39.61;99709.72;10364717;28;20221;-78
2021/06/29 16:05:12;;;;;;;9.07;8.02;;;;;;;26.88;45.56;99725.88;10365375;28;20256;-77
2021/06/29 16:10:17;;;;;;;7.88;7.07;;;;;;;27.13;44.83;99719.13;10369570;28;20210;-77
2021/06/29 16:15:21;;;;;;;7.80;7.05;;;;;;;30.68;39.24;99709.38;10388325;28;20220;-77
2021/06/29 16:20:24;;;;;;;8.88;7.30;;;;;;;30.81;38.49;99716.34;10388203;28;20648;-77
2021/06/29 16:25:28;;;;;;;8.23;7.38;;;;;;;29.65;41.27;99729.38;10387975;28;20268;-77
2021/06/29 16:30:33;;;;;;;9.00;8.10;;;;;;;28.16;43.05;99714.06;10388352;28;20235;-77
2021/06/29 16:35:37;;;;;;;8.40;7.10;;;;;;;30.91;38.49;99716.34;10387758;28;20187;-77
2021/06/29 16:40:41;;;;;;;8.80;7.78;;;;;;;30.73;38.96;99716.88;10397435;28;20215;-77
2021/06/29 16:45:44;;;;;;;8.98;7.40;;;;;;;34.63;33.57;99715.16;10393174;28;20191;-77
2021/06/29 16:50:47;;;;;;;11.15;8.50;;;;;;;33.88;32.71;99720.56;10394768;28;20664;-79
2021/06/29 16:55:52;;;;;;;9.48;8.52;;;;;;;33.78;33.60;99727.06;10396043;28;20205;-78
2021/06/29 17:00:55;;;;;;;9.20;8.25;;;;;;;30.66;38.45;99744.84;10389754;28;20241;-76
2021/06/29 17:05:58;;;;;;;10.23;8.40;;;;;;;31.10;37.94;99745.22;10371749;28;20206;-77
2021/06/29 17:11:02;;;;;;;9.02;8.10;;;;;;;28.10;43.75;99747.38;10388366;28;20209;-79
2021/06/29 17:16:06;;;;;;;10.75;8.60;;;;;;;31.64;38.07;99742.97;10397026;28;20290;-78
2021/06/29 17:21:09;;;;;;;9.10;7.50;;;;;;;29.93;40.27;99742.00;10391530;28;20564;-77
2021/06/29 17:26:13;;;;;;;9.45;8.45;;;;;;;29.70;39.92;99737.69;10408317;28;20205;-78
2021/06/29 17:31:16;;;;;;;9.90;8.52;;;;;;;26.67;45.51;99751.31;10407045;28;20232;-79
2021/06/29 17:36:19;;;;;;;10.23;8.90;;;;;;;31.05;39.17;99745.19;10390507;28;20274;-77
2021/06/29 17:41:25;;;;;;;9.55;8.07;;;;;;;35.35;32.46;99739.13;10383535;28;20242;-77
2021/06/29 17:46:28;;;;;;;8.23;7.43;;;;;;;35.65;30.65;99742.56;10362934;28;20293;-77
2021/06/29 17:51:31;;;;;;;9.68;8.60;;;;;;;32.32;34.76;99743.38;10359311;28;20214;-76
2021/06/29 17:56:35;;;;;;;12.13;9.18;;;;;;;29.44;39.99;99737.50;10358030;28;20198;-75
2021/06/29 18:01:38;;;;;;;10.95;9.82;;;;;;;27.67;43.58;99718.59;10358045;28;20274;-76
2021/06/29 18:06:41;;;;;;;12.20;9.93;;;;;;;26.86;45.74;99729.94;10339187;28;20298;-75
2021/06/29 18:11:49;;;;;;;10.63;9.52;;;;;;;26.18;47.19;99715.91;10357863;28;20211;-76
2021/06/29 18:16:52;;;;;;;9.60;8.60;;;;;;;25.65;48.43;99705.97;10357082;28;20199;-77
2021/06/29 18:21:55;;;;;;;11.55;10.25;;;;;;;25.03;49.50;99705.53;10358185;28;20215;-76
2021/06/29 18:26:59;;;;;;;12.50;10.32;;;;;;;24.52;50.54;99702.25;10357544;28;20198;-76
2021/06/29 18:32:02;;;;;;;11.75;10.55;;;;;;;24.57;50.75;99716.09;10357589;28;20215;-77
2021/06/29 18:37:06;;;;;;;11.02;9.93;;;;;;;24.48;50.98;99720.25;10350388;28;20671;-77
2021/06/29 18:42:10;;;;;;;13.55;9.63;;;;;;;24.34;51.90;99727.78;10352250;28;20227;-78
2021/06/29 18:47:15;;;;;;;11.77;10.52;;;;;;;23.91;52.38;99727.88;10350624;28;20195;-75
2021/06/29 18:52:18;;;;;;;13.18;10.45;;;;;;;23.84;53.27;99736.19;10371542;28;20714;-75
2021/06/29 18:57:22;;;;;;;12.77;10.52;;;;;;;23.74;53.51;99730.34;10333128;28;20587;-77
2021/06/29 19:02:25;;;;;;;12.52;9.52;;;;;;;23.54;53.72;99725.09;10351791;28;20291;-77
2021/06/29 19:07:28;;;;;;;13.35;10.10;;;;;;;23.43;54.32;99719.25;10350827;28;20191;-78
2021/06/29 19:12:35;;;;;;;12.77;10.70;;;;;;;23.19;55.69;99725.59;10350729;28;20215;-77
2021/06/29 19:17:39;;;;;;;11.50;9.95;;;;;;;22.90;55.67;99730.63;10350281;28;20195;-78
2021/06/29 19:22:42;;;;;;;10.98;9.50;;;;;;;22.75;56.38;99714.50;10351363;28;20599;-78
2021/06/29 19:27:47;;;;;;;11.07;9.75;;;;;;;22.65;56.76;99713.31;10350769;28;20195;-76
2021/06/29 19:32:50;;;;;;;10.68;8.77;;;;;;;22.51;56.93;99723.47;10352776;28;20207;-78
2021/06/29 19:37:53;;;;;;;11.18;9.00;;;;;;;22.32;57.46;99723.34;10350631;28;20202;-76
2021/06/29 19:42:57;;;;;;;13.32;10.50;;;;;;;22.16;58.12;99734.78;10350725;28;20219;-78
2021/06/29 19:48:00;;;;;;;14.23;10.68;;;;;;;21.95;59.67;99754.19;10349976;28;20198;-77
2021/06/29 19:53:04;;;;;;;14.93;11.70;;;;;;;21.80;60.37;99757.16;10349570;28;20222;-78
2021/06/29 19:58:08;;;;;;;15.65;11.35;;;;;;;21.56;61.73;99754.03;10349477;28;20199;-76
2021/06/29 20:03:11;;;;;;;17.05;11.52;;;;;;;21.44;62.38;99762.00;10349314;28;20603;-77
2021/06/29 20:08:14;;;;;;;15.60;12.48;;;;;;;21.36;62.93;99773.13;10350043;28;20199;-78
2021/06/29 20:13:18;;;;;;;16.25;12.45;;;;;;;21.29;63.60;99772.31;10331689;28;20714;-76
2021/06/29 20:18:21;;;;;;;15.52;11.43;;;;;;;21.09;64.10;99776.91;10384721;28;20277;-76
2021/06/29 20:23:25;;;;;;;16.27;12.50;;;;;;;20.96;64.61;99769.50;10389055;28;20218;-76
2021/06/29 20:28:30;;;;;;;17.23;13.45;;;;;;;20.88;64.82;99762.34;10388448;28;20277;-76
2021/06/29 20:33:33;;;;;;;19.35;13.93;;;;;;;20.84;65.08;99772.00;10379752;28;20207;-75
2021/06/29 20:38:36;;;;;;;15.73;12.02;;;;;;;20.83;65.05;99764.03;10361802;28;20206;-76
2021/06/29 20:43:44;;;;;;;17.13;12.88;;;;;;;20.73;65.39;99758.94;10388140;28;20222;-75
2021/06/29 20:48:47;;;;;;;20.88;14.13;;;;;;;20.69;65.09;99744.88;10388111;28;20179;-79
2021/06/29 20:53:50;;;;;;;16.75;13.00;;;;;;;20.65;65.33;99746.38;10407595;23;20230;-73
2021/06/29 20:58:54;;;;;;;18.08;13.43;;;;;;;20.50;65.23;99745.66;10391465;28;20206;-73
2021/06/29 21:03:57;;;;;;;19.25;14.45;;;;;;;20.25;66.38;99739.88;10370145;28;20231;-74
2021/06/29 21:09:00;;;;;;;18.75;13.90;;;;;;;20.25;66.22;99738.00;10345612;28;20201;-74
2021/06/29 21:14:05;;;;;;;17.23;12.95;;;;;;;20.21;66.14;99728.53;10344603;28;20217;-73
2021/06/29 21:19:13;;;;;;;18.73;13.88;;;;;;;20.10;66.35;99726.38;10351477;28;20187;-72
2021/06/29 21:24:22;;;;;;;20.33;14.38;;;;;;;19.97;66.37;99718.16;10351120;28;20229;-73
2021/06/29 21:29:32;;;;;;;20.02;14.05;;;;;;;19.88;66.38;99726.50;10352915;28;20657;-73
2021/06/29 21:34:40;;;;;;;19.00;13.40;;;;;;;19.89;66.24;99732.78;10350221;28;20211;-73
2021/06/29 21:39:48;;;;;;;16.23;12.85;;;;;;;19.96;66.10;99739.09;10364797;28;20195;-73
2021/06/29 21:44:58;;;;;;;18.55;12.63;;;;;;;19.86;65.74;99755.00;10364914;28;20231;-73
2021/06/29 21:50:07;;;;;;;16.20;11.80;;;;;;;19.90;65.68;99759.81;10349850;28;20198;-73
2021/06/29 21:55:15;;;;;;;19.33;12.68;;;;;;;19.95;65.72;99769.31;10349760;28;20214;-74
2021/06/29 22:00:25;;;;;;;16.33;12.40;;;;;;;20.12;65.46;99771.47;10347272;28;20194;-74
2021/06/29 22:05:34;;;;;;;16.83;11.55;;;;;;;19.70;66.52;99790.72;10346091;28;20222;-73
2021/06/29 22:10:42;;;;;;;6.93;4.13;;;;;;;18.54;67.04;99805.25;10349004;28;20198;-74
2021/06/29 22:15:52;;;;;;;5.60;3.50;;;;;;;17.67;70.12;99822.16;10351889;28;20233;-73
2021/06/29 22:21:03;;;;;;;5.68;3.70;;;;;;;17.33;73.60;99832.63;10367277;28;20294;-74
2021/06/29 22:26:11;;;;;;;6.13;4.00;;;;;;;16.30;80.27;99821.00;10351861;28;20242;-73
2021/06/29 22:31:20;;;;;;;11.93;5.50;;;;;;;15.40;88.75;99837.38;10353140;28;20194;-75
2021/06/29 22:36:23;;;;;;;10.27;7.10;;;;;;;15.19;87.53;99847.81;10351469;28;20227;-77
2021/06/29 22:41:31;;;;;;;11.93;6.13;;;;;;;15.16;87.93;99834.63;10352099;28;20535;-76
2021/06/29 22:46:40;;;;;;;13.55;9.20;;;;;;;15.17;88.69;99812.84;10352614;28;20215;-76
2021/06/29 22:51:48;;;;;;;16.25;11.32;;;;;;;15.44;88.29;99795.44;10351379;28;20873;-76
2021/06/29 22:56:56;;;;;;;10.77;6.78;;;;;;;14.92;88.52;99805.69;10351799;28;20176;-75
2021/06/29 23:02:00;;;;;;;7.38;6.00;;;;;;;14.64;89.52;99805.97;10351584;28;20212;-76
2021/06/29 23:07:08;;;;;;;6.88;4.63;;;;;;;14.45;88.74;99792.75;10351056;28;20286;-75
2021/06/29 23:12:16;;;;;;;6.97;5.68;;;;;;;14.03;94.65;99797.09;10350883;28;20628;-75